Time;durP1;ratioP1;P1;durP2;ratioP2;P2;SDS_P1;SDS_P2;PMS_P1;PMS_P2;Temp;Humidity;BMP_temperature;BMP_pressure;BME280_temperature;BME280_humidity;BME280_pressure;Samples;Min_cycle;Max_cycle;Signal;HPM_P1;HPM_P2
2021/04/28 00:00:13;;;;;;;16.08;10.05;;;;;;;5.97;85.61;94681.63;1017622;28;20651;-69
2021/04/28 00:00:44;;;;;;;19.50;10.52;;;;;;;5.98;85.59;94686.56;1023240;29;20632;-68
2021/04/28 00:01:14;;;;;;;19.85;10.93;;;;;;;5.97;85.66;94686.81;1023569;29;20290;-69
2021/04/28 00:01:45;;;;;;;15.77;11.10;;;;;;;5.99;85.69;94682.16;1025208;28;20374;-68
2021/04/28 00:02:15;;;;;;;15.55;10.27;;;;;;;6.00;85.84;94681.09;1023767;29;20019;-68
2021/04/28 00:02:46;;;;;;;13.77;9.60;;;;;;;5.99;85.75;94684.75;1021226;29;20023;-69
2021/04/28 00:03:16;;;;;;;15.60;10.60;;;;;;;5.92;85.89;94664.16;1021298;29;20028;-68
2021/04/28 00:03:47;;;;;;;14.98;9.75;;;;;;;5.99;85.64;94679.53;1032050;28;20404;-68
2021/04/28 00:04:17;;;;;;;18.92;9.90;;;;;;;6.00;85.67;94675.88;1032882;28;20023;-69
2021/04/28 00:04:48;;;;;;;14.02;9.68;;;;;;;6.01;85.88;94680.84;1032794;28;20079;-66
2021/04/28 00:05:18;;;;;;;12.10;8.90;;;;;;;6.01;85.89;94672.25;1033908;28;20003;-68
2021/04/28 00:05:49;;;;;;;15.80;9.48;;;;;;;6.02;85.84;94676.44;1028547;28;20086;-69
2021/04/28 00:06:19;;;;;;;16.63;9.80;;;;;;;6.00;86.06;94684.50;1032693;28;20053;-67
2021/04/28 00:06:50;;;;;;;12.55;9.77;;;;;;;6.00;85.99;94681.09;1032440;28;20061;-69
2021/04/28 00:07:20;;;;;;;15.55;9.07;;;;;;;5.96;86.46;94673.03;1030297;28;20030;-68
2021/04/28 00:07:51;;;;;;;17.70;10.65;;;;;;;5.98;86.26;94676.16;1035520;28;20025;-69
2021/04/28 00:08:22;;;;;;;13.13;9.52;;;;;;;5.98;86.10;94672.78;1027849;28;20770;-68
2021/04/28 00:08:52;;;;;;;17.13;9.40;;;;;;;6.00;86.62;94673.28;1027406;28;20274;-69
2021/04/28 00:09:22;;;;;;;16.05;10.00;;;;;;;5.99;86.49;94671.72;1027018;28;20038;-69
2021/04/28 00:09:53;;;;;;;17.25;9.40;;;;;;;5.98;86.81;94678.00;1023841;28;20504;-69
2021/04/28 00:10:26;;;;;;;13.30;8.82;;;;;;;5.98;86.74;94668.34;1031406;28;20034;-69
2021/04/28 00:10:57;;;;;;;14.85;9.07;;;;;;;5.99;86.76;94674.34;1032400;28;20049;-69
2021/04/28 00:11:27;;;;;;;16.25;9.57;;;;;;;5.97;86.63;94682.41;1031659;28;20277;-68
2021/04/28 00:11:58;;;;;;;13.30;9.95;;;;;;;5.96;87.21;94680.84;1031785;28;20018;-69
2021/04/28 00:12:29;;;;;;;13.95;8.77;;;;;;;5.94;87.10;94672.53;1030846;28;20088;-69
2021/04/28 00:12:59;;;;;;;15.60;9.95;;;;;;;5.93;87.35;94673.53;1023789;28;20270;-69
2021/04/28 00:13:30;;;;;;;19.08;9.88;;;;;;;5.93;87.62;94675.38;1019138;29;20037;-69
2021/04/28 00:14:00;;;;;;;14.48;10.07;;;;;;;5.93;87.50;94675.38;1023704;28;20034;-69
2021/04/28 00:14:31;;;;;;;14.13;9.95;;;;;;;5.88;87.60;94676.91;1022636;29;20125;-68
2021/04/28 00:15:09;;;;;;;15.75;10.65;;;;;;;5.94;87.48;94684.75;1015220;29;20032;-67
2021/04/28 00:15:43;;;;;;;14.93;9.48;;;;;;;5.93;87.63;94683.94;1021434;29;20548;-67
2021/04/28 00:16:13;;;;;;;14.70;10.40;;;;;;;5.92;87.98;94679.78;1019735;29;20338;-68
2021/04/28 00:16:43;;;;;;;14.80;9.88;;;;;;;5.94;87.96;94682.16;1022392;28;20306;-69
2021/04/28 00:17:14;;;;;;;14.18;10.18;;;;;;;5.93;87.71;94678.75;1026614;28;20026;-69
2021/04/28 00:17:45;;;;;;;15.95;10.60;;;;;;;5.91;87.71;94678.22;1022815;28;20054;-68
2021/04/28 00:18:16;;;;;;;14.93;10.43;;;;;;;5.86;87.87;94675.59;1024696;28;20520;-68
2021/04/28 00:18:48;;;;;;;14.25;10.35;;;;;;;5.93;87.86;94681.34;1019670;29;20267;-68
2021/04/28 00:19:18;;;;;;;15.65;10.02;;;;;;;5.91;87.84;94676.38;1019249;29;20031;-69
2021/04/28 00:19:48;;;;;;;12.60;9.18;;;;;;;5.89;88.00;94685.50;1018506;29;20925;-66
2021/04/28 00:20:20;;;;;;;14.90;10.10;;;;;;;5.88;88.04;94679.50;1015661;29;20028;-69
2021/04/28 00:20:51;;;;;;;14.05;10.30;;;;;;;5.87;87.76;94683.16;1019706;29;20028;-68
2021/04/28 00:21:22;;;;;;;15.00;10.35;;;;;;;5.83;88.35;94682.09;1025988;28;20273;-68
2021/04/28 00:21:52;;;;;;;15.93;10.40;;;;;;;5.83;88.44;94682.09;1019641;29;20287;-68
2021/04/28 00:22:23;;;;;;;17.25;10.52;;;;;;;5.83;88.08;94682.09;1023742;28;20486;-68
2021/04/28 00:22:53;;;;;;;14.18;10.35;;;;;;;5.83;88.38;94679.47;1025080;28;20525;-68
2021/04/28 00:23:24;;;;;;;13.98;9.80;;;;;;;5.83;88.31;94682.09;1019304;29;20549;-68
2021/04/28 00:23:55;;;;;;;12.77;9.82;;;;;;;5.78;88.61;94674.28;1023277;29;20031;-68
2021/04/28 00:24:26;;;;;;;14.50;9.98;;;;;;;5.77;88.49;94669.31;1023189;29;20046;-69
2021/04/28 00:24:56;;;;;;;14.00;10.45;;;;;;;5.81;88.65;94678.97;1019295;29;20032;-68
2021/04/28 00:25:26;;;;;;;16.92;10.27;;;;;;;5.72;88.90;94670.09;1018648;29;20044;-68
2021/04/28 00:25:57;;;;;;;14.95;10.10;;;;;;;5.70;88.89;94667.00;1019258;29;20030;-69
2021/04/28 00:26:27;;;;;;;14.75;9.95;;;;;;;5.79;88.85;94675.06;1025734;28;20042;-69
2021/04/28 00:26:58;;;;;;;14.25;9.82;;;;;;;5.75;89.42;94672.19;1023387;29;20497;-69
2021/04/28 00:27:28;;;;;;;14.02;10.57;;;;;;;5.76;89.79;94672.97;1027230;28;20030;-68
2021/04/28 00:27:59;;;;;;;13.65;10.70;;;;;;;5.74;89.44;94672.47;1031870;28;20575;-68
2021/04/28 00:28:29;;;;;;;15.07;9.60;;;;;;;5.75;89.37;94668.81;1023828;28;20094;-68
2021/04/28 00:29:00;;;;;;;17.58;10.10;;;;;;;5.72;89.59;94675.31;1027574;28;20018;-69
2021/04/28 00:29:32;;;;;;;13.68;9.90;;;;;;;5.71;89.55;94672.97;1030802;28;20034;-68
2021/04/28 00:30:07;;;;;;;15.90;10.20;;;;;;;5.65;89.65;94665.16;1027184;28;20484;-69
2021/04/28 00:30:38;;;;;;;15.73;9.88;;;;;;;5.67;90.04;94675.31;1023180;29;20271;-68
2021/04/28 00:31:08;;;;;;;15.32;9.63;;;;;;;5.62;90.00;94670.09;1014470;29;20771;-68
2021/04/28 00:31:39;;;;;;;13.02;9.85;;;;;;;5.70;89.77;94674.81;1015788;29;20267;-68
2021/04/28 00:32:09;;;;;;;13.35;9.63;;;;;;;5.69;90.00;94670.63;1022634;28;20038;-68
2021/04/28 00:32:40;;;;;;;14.07;9.77;;;;;;;5.68;90.07;94675.03;1023149;28;20042;-65
2021/04/28 00:33:11;;;;;;;15.77;9.57;;;;;;;5.70;89.94;94677.41;1023211;29;20022;-68
2021/04/28 00:33:41;;;;;;;16.20;9.70;;;;;;;5.68;90.00;94669.06;1022908;28;20034;-69
2021/04/28 00:34:12;;;;;;;17.45;10.07;;;;;;;5.66;90.11;94671.91;1019325;29;20028;-69
2021/04/28 00:34:42;;;;;;;15.18;10.05;;;;;;;5.54;89.71;94644.59;1019233;28;20039;-68
2021/04/28 00:35:13;;;;;;;15.35;10.45;;;;;;;5.62;90.01;94654.47;1026200;28;20563;-68
2021/04/28 00:35:44;;;;;;;15.80;10.70;;;;;;;5.71;90.00;94673.75;1027355;28;20027;-69
2021/04/28 00:36:14;;;;;;;16.60;10.30;;;;;;;5.70;89.91;94667.00;1022944;29;20765;-69
2021/04/28 00:36:45;;;;;;;13.85;9.65;;;;;;;5.69;89.72;94670.63;1022866;29;20027;-69
2021/04/28 00:37:15;;;;;;;13.85;9.18;;;;;;;5.67;90.18;94677.91;1023387;29;20075;-68
2021/04/28 00:37:46;;;;;;;16.05;9.63;;;;;;;5.65;90.17;94672.19;1026965;28;20034;-68
2021/04/28 00:38:16;;;;;;;13.75;10.20;;;;;;;5.64;89.93;94668.81;1026937;28;20019;-67
2021/04/28 00:38:46;;;;;;;13.65;10.05;;;;;;;5.64;90.04;94668.03;1027556;28;20037;-69
2021/04/28 00:39:17;;;;;;;14.05;10.45;;;;;;;5.61;90.45;94673.75;1023104;29;20031;-69
2021/04/28 00:39:47;;;;;;;16.20;10.15;;;;;;;5.62;90.15;94670.09;1024519;28;20505;-66
2021/04/28 00:40:19;;;;;;;18.48;10.05;;;;;;;5.60;90.33;94666.94;1026871;28;20039;-69
2021/04/28 00:40:49;;;;;;;15.18;9.80;;;;;;;5.48;90.45;94654.19;1027272;28;20097;-68
2021/04/28 00:41:20;;;;;;;16.67;10.32;;;;;;;5.59;90.63;94668.00;1034499;28;20295;-68
2021/04/28 00:41:50;;;;;;;14.73;9.73;;;;;;;5.57;90.93;94672.69;1023091;28;20506;-69
2021/04/28 00:42:21;;;;;;;13.90;9.57;;;;;;;5.55;90.68;94670.34;1023574;29;20086;-68
2021/04/28 00:42:51;;;;;;;15.73;10.13;;;;;;;5.55;90.86;94665.13;1023551;29;20571;-68
2021/04/28 00:43:22;;;;;;;13.73;9.60;;;;;;;5.54;91.56;94668.00;1015431;29;20039;-67
2021/04/28 00:43:52;;;;;;;13.32;10.18;;;;;;;5.51;91.09;94668.50;1027535;28;20105;-69
2021/04/28 00:44:23;;;;;;;17.20;10.05;;;;;;;5.48;91.30;94662.00;1019424;29;20016;-68
2021/04/28 00:44:53;;;;;;;14.75;9.75;;;;;;;5.46;91.39;94661.47;1019133;29;20035;-65
2021/04/28 00:45:25;;;;;;;15.73;9.63;;;;;;;5.39;91.59;94660.94;1027688;28;20031;-68
2021/04/28 00:45:56;;;;;;;13.32;9.80;;;;;;;5.46;91.45;94666.66;1027701;28;20038;-69
2021/04/28 00:46:27;;;;;;;13.75;9.35;;;;;;;5.42;91.59;94666.41;1035131;28;20268;-68
2021/04/28 00:46:57;;;;;;;15.43;10.25;;;;;;;5.46;91.70;94668.50;1027217;28;20270;-68
2021/04/28 00:47:28;;;;;;;15.30;9.38;;;;;;;5.46;91.60;94660.69;1019243;29;20031;-69
2021/04/28 00:48:00;;;;;;;17.70;9.73;;;;;;;5.43;92.22;94664.56;1019925;29;20050;-69
2021/04/28 00:48:31;;;;;;;13.25;9.63;;;;;;;5.36;92.19;94657.00;1021992;28;20046;-68
2021/04/28 00:49:01;;;;;;;15.25;9.88;;;;;;;5.41;92.31;94664.84;1023302;29;20478;-68
2021/04/28 00:49:31;;;;;;;14.40;10.10;;;;;;;5.39;92.39;94663.53;1019581;29;20055;-69
2021/04/28 00:50:04;;;;;;;12.35;9.73;;;;;;;5.42;92.51;94663.00;1020806;29;20481;-68
2021/04/28 00:50:42;;;;;;;15.98;9.88;;;;;;;5.41;92.04;94659.63;1019422;28;20032;-68
2021/04/28 00:51:13;;;;;;;15.55;9.88;;;;;;;5.40;92.42;94658.09;1028785;28;20297;-68
2021/04/28 00:51:43;;;;;;;13.02;9.40;;;;;;;5.41;92.51;94664.84;1030841;28;20269;-69
2021/04/28 00:52:14;;;;;;;15.65;9.80;;;;;;;5.35;92.56;94658.06;1030861;28;20026;-68
2021/04/28 00:52:45;;;;;;;15.43;9.73;;;;;;;5.41;92.72;94670.03;1030143;28;20022;-68
2021/04/28 00:53:17;;;;;;;13.05;9.55;;;;;;;5.30;93.00;94652.84;1019208;29;20111;-69
2021/04/28 00:53:47;;;;;;;15.93;9.80;;;;;;;5.34;92.85;94664.31;1023102;29;21234;-67
2021/04/28 00:54:17;;;;;;;12.00;9.63;;;;;;;5.34;93.14;94664.31;1022849;29;20262;-68
2021/04/28 00:54:48;;;;;;;13.18;9.10;;;;;;;5.31;93.11;94659.59;1023487;29;20481;-68
2021/04/28 00:55:18;;;;;;;16.88;10.45;;;;;;;5.31;92.89;94664.81;1018459;29;20747;-68
2021/04/28 00:55:49;;;;;;;11.90;9.27;;;;;;;5.36;93.04;94666.63;1019318;29;20019;-68
2021/04/28 00:56:20;;;;;;;12.80;9.77;;;;;;;5.33;93.23;94662.75;1023863;29;20030;-68
2021/04/28 00:56:52;;;;;;;15.35;10.52;;;;;;;5.32;93.01;94661.16;1026946;28;20133;-68
2021/04/28 00:57:23;;;;;;;12.77;9.90;;;;;;;5.31;93.42;94656.22;1030989;28;20014;-68
2021/04/28 00:57:53;;;;;;;14.68;10.15;;;;;;;5.32;92.98;94661.16;1027953;28;20764;-68
2021/04/28 00:58:24;;;;;;;15.93;10.20;;;;;;;5.35;93.11;94659.88;1026414;28;20033;-67
2021/04/28 00:58:55;;;;;;;14.50;9.50;;;;;;;5.32;93.40;94661.16;1017112;29;20031;-69
2021/04/28 00:59:28;;;;;;;15.20;10.43;;;;;;;5.30;93.32;94665.84;1019490;29;20049;-69
2021/04/28 00:59:58;;;;;;;17.13;9.82;;;;;;;5.30;93.69;94663.25;1027394;28;20045;-69
2021/04/28 01:00:29;;;;;;;14.35;9.73;;;;;;;5.32;93.68;94663.00;1023215;28;20267;-68
2021/04/28 01:00:59;;;;;;;17.27;10.02;;;;;;;5.29;93.53;94664.28;1027281;28;20408;-68
2021/04/28 01:01:30;;;;;;;14.35;9.55;;;;;;;5.24;93.54;94648.66;1027203;28;20039;-68
2021/04/28 01:02:00;;;;;;;14.20;9.70;;;;;;;5.32;93.66;94661.16;1019576;29;20456;-68
2021/04/28 01:02:31;;;;;;;13.25;9.70;;;;;;;5.32;93.58;94660.38;1023219;28;20058;-68
2021/04/28 01:03:02;;;;;;;19.52;10.18;;;;;;;5.31;93.75;94666.63;1027647;28;20034;-68
2021/04/28 01:03:34;;;;;;;13.57;9.60;;;;;;;5.27;93.93;94657.78;1023151;28;20031;-67
2021/04/28 01:04:05;;;;;;;12.90;9.60;;;;;;;5.26;93.81;94656.97;1023422;28;20106;-68
2021/04/28 01:04:35;;;;;;;12.73;9.90;;;;;;;5.27;93.80;94653.38;1023503;29;20330;-67
2021/04/28 01:05:06;;;;;;;13.80;9.60;;;;;;;5.29;94.01;94655.69;1019085;29;20271;-68
2021/04/28 01:05:37;;;;;;;13.55;9.82;;;;;;;5.29;94.04;94656.47;1018357;29;20164;-68
2021/04/28 01:06:07;;;;;;;14.13;10.13;;;;;;;5.25;93.85;94662.44;1011839;29;20486;-68
2021/04/28 01:06:38;;;;;;;14.18;10.35;;;;;;;5.26;94.34;94659.59;1019547;29;20047;-69
2021/04/28 01:07:08;;;;;;;15.70;10.07;;;;;;;5.24;94.21;94661.69;1023507;29;20035;-68
2021/04/28 01:07:39;;;;;;;14.73;9.77;;;;;;;5.17;93.94;94645.53;1017746;29;20031;-69
2021/04/28 01:08:10;;;;;;;14.18;9.75;;;;;;;5.24;94.38;94659.06;1027132;28;20022;-69
2021/04/28 01:08:41;;;;;;;15.40;10.15;;;;;;;5.24;94.35;94658.28;1031779;28;20018;-69
2021/04/28 01:09:14;;;;;;;14.38;10.50;;;;;;;5.22;94.33;94650.72;1029201;28;20038;-66
2021/04/28 01:09:45;;;;;;;14.15;10.35;;;;;;;5.22;94.46;94663.72;1016308;29;20489;-69
2021/04/28 01:10:26;;;;;;;14.50;10.27;;;;;;;5.14;94.85;94649.41;1019382;29;20263;-68
2021/04/28 01:10:56;;;;;;;13.95;9.80;;;;;;;5.18;94.71;94657.47;1022812;29;20567;-68
2021/04/28 01:11:27;;;;;;;12.38;8.93;;;;;;;5.22;94.96;94666.34;1028261;28;20284;-68
2021/04/28 01:11:57;;;;;;;13.25;9.93;;;;;;;5.17;94.50;94651.50;1027279;28;20022;-68
2021/04/28 01:12:28;;;;;;;15.13;10.63;;;;;;;5.26;94.85;94653.59;1019495;29;20027;-66
2021/04/28 01:12:59;;;;;;;14.82;9.63;;;;;;;5.25;94.46;94668.44;1018234;29;20075;-69
2021/04/28 01:13:29;;;;;;;13.52;9.48;;;;;;;5.24;94.83;94659.06;1026857;28;20290;-67
2021/04/28 01:14:00;;;;;;;13.35;9.80;;;;;;;5.16;95.07;94655.16;1027732;28;20034;-69
2021/04/28 01:14:31;;;;;;;13.80;10.15;;;;;;;5.16;95.18;94656.94;1017208;29;20556;-69
2021/04/28 01:15:02;;;;;;;13.15;9.60;;;;;;;5.18;95.02;94657.47;1011235;29;20025;-66
2021/04/28 01:15:33;;;;;;;13.07;9.85;;;;;;;5.20;95.01;94663.22;1019446;29;20067;-66
2021/04/28 01:16:04;;;;;;;16.42;9.93;;;;;;;5.21;95.14;94656.97;1025795;28;20777;-68
2021/04/28 01:16:34;;;;;;;12.80;9.77;;;;;;;5.19;94.75;94661.66;1039692;28;20269;-67
2021/04/28 01:17:05;;;;;;;16.33;10.02;;;;;;;5.14;94.90;94656.44;1035205;28;20029;-69
2021/04/28 01:17:36;;;;;;;14.35;10.43;;;;;;;5.18;95.13;94665.28;1022878;29;20127;-69
2021/04/28 01:18:06;;;;;;;12.32;10.07;;;;;;;5.21;95.33;94654.38;1015910;29;20024;-68
2021/04/28 01:18:37;;;;;;;14.15;10.07;;;;;;;5.19;95.24;94654.63;1015519;29;20513;-68
2021/04/28 01:19:07;;;;;;;14.63;10.05;;;;;;;5.18;95.21;94660.09;1015762;29;20020;-68
2021/04/28 01:19:38;;;;;;;15.60;10.45;;;;;;;5.19;94.96;94652.03;1029036;28;20496;-68
2021/04/28 01:20:11;;;;;;;15.57;10.35;;;;;;;5.21;94.98;94651.78;1026971;28;20046;-68
2021/04/28 01:20:42;;;;;;;15.50;10.02;;;;;;;5.23;95.12;94651.50;1028098;28;20093;-69
2021/04/28 01:21:12;;;;;;;13.32;10.40;;;;;;;5.22;94.72;94650.72;1030454;28;20356;-68
2021/04/28 01:21:43;;;;;;;13.05;10.40;;;;;;;5.21;95.19;94649.19;1031506;28;20104;-69
2021/04/28 01:22:13;;;;;;;12.82;10.23;;;;;;;5.17;95.08;94642.94;1027598;28;20027;-68
2021/04/28 01:22:44;;;;;;;15.57;10.10;;;;;;;5.22;94.88;94655.94;1023215;28;20059;-68
2021/04/28 01:23:16;;;;;;;13.85;9.48;;;;;;;5.22;95.01;94655.16;1015139;29;20056;-68
2021/04/28 01:23:46;;;;;;;13.85;10.30;;;;;;;5.24;95.25;94655.69;1015604;29;20383;-68
2021/04/28 01:24:17;;;;;;;18.52;10.63;;;;;;;5.24;95.06;94656.47;1015688;29;20252;-68
2021/04/28 01:24:49;;;;;;;16.95;9.93;;;;;;;5.21;95.07;94664.78;1024336;28;20539;-70
2021/04/28 01:25:21;;;;;;;13.80;9.82;;;;;;;5.16;94.72;94649.16;1027141;28;20023;-68
2021/04/28 01:25:52;;;;;;;13.55;9.65;;;;;;;5.24;95.02;94655.69;1035004;28;20264;-68
2021/04/28 01:26:24;;;;;;;14.27;9.77;;;;;;;5.21;95.08;94651.78;1037041;28;20253;-68
2021/04/28 01:26:55;;;;;;;18.20;10.38;;;;;;;5.19;95.33;94653.84;1034455;28;20026;-69
2021/04/28 01:27:26;;;;;;;14.52;9.98;;;;;;;5.17;95.22;94664.50;1034807;28;20332;-68
2021/04/28 01:28:01;;;;;;;15.23;10.30;;;;;;;5.12;95.30;94650.69;1030274;28;20054;-68
2021/04/28 01:28:31;;;;;;;14.90;9.93;;;;;;;5.11;95.61;94649.91;1027180;28;20266;-68
2021/04/28 01:29:02;;;;;;;13.70;9.85;;;;;;;5.02;95.48;94645.47;1026883;28;20780;-68
2021/04/28 01:29:32;;;;;;;13.52;10.20;;;;;;;5.10;95.88;94658.78;1027974;28;20456;-68
2021/04/28 01:30:04;;;;;;;13.48;9.80;;;;;;;5.05;95.81;94650.16;1023188;28;20023;-69
2021/04/28 01:30:39;;;;;;;14.82;10.30;;;;;;;5.09;95.87;94661.59;1027886;28;20027;-68
2021/04/28 01:31:10;;;;;;;12.60;9.52;;;;;;;5.06;95.74;94660.28;1026151;28;20294;-68
2021/04/28 01:31:41;;;;;;;14.88;10.48;;;;;;;5.08;96.11;94663.44;1024365;28;20307;-69
2021/04/28 01:32:12;;;;;;;17.08;10.02;;;;;;;5.08;96.01;94662.66;1011190;29;20257;-69
2021/04/28 01:32:46;;;;;;;15.73;10.15;;;;;;;5.09;96.25;94661.59;1019258;29;20479;-68
2021/04/28 01:33:28;;;;;;;15.05;9.70;;;;;;;5.06;96.28;94664.72;1014219;29;20271;-68
2021/04/28 01:33:59;;;;;;;16.15;11.00;;;;;;;5.05;96.14;94660.56;1025166;28;20372;-69
2021/04/28 01:34:29;;;;;;;13.10;9.90;;;;;;;5.06;96.54;94662.09;1021467;29;20275;-69
2021/04/28 01:35:00;;;;;;;12.18;9.38;;;;;;;5.06;96.05;94667.31;1018333;29;20260;-67
2021/04/28 01:35:30;;;;;;;13.40;10.07;;;;;;;5.02;96.22;94655.84;1014793;29;20024;-68
2021/04/28 01:36:01;;;;;;;13.30;10.20;;;;;;;5.07;96.20;94656.69;1019675;29;20020;-69
2021/04/28 01:36:34;;;;;;;14.75;10.50;;;;;;;4.99;96.27;94648.56;1018953;29;20075;-68
2021/04/28 01:37:05;;;;;;;14.20;10.38;;;;;;;5.07;96.05;94661.09;1016528;29;20030;-68
2021/04/28 01:37:35;;;;;;;14.25;9.85;;;;;;;5.06;96.31;94662.09;1018716;29;20278;-68
2021/04/28 01:38:06;;;;;;;17.92;10.48;;;;;;;5.07;96.08;94664.47;1019442;28;20048;-65
2021/04/28 01:38:39;;;;;;;12.10;10.05;;;;;;;5.00;95.83;94647.53;1027346;28;20791;-69
2021/04/28 01:39:11;;;;;;;13.55;10.57;;;;;;;5.07;96.15;94663.69;1027072;28;20116;-68
2021/04/28 01:39:41;;;;;;;23.80;10.10;;;;;;;5.07;96.40;94664.47;1019660;29;20264;-70
2021/04/28 01:40:13;;;;;;;13.90;9.68;;;;;;;5.05;96.42;94656.13;1018783;29;21021;-68
2021/04/28 01:40:43;;;;;;;14.52;11.13;;;;;;;5.06;96.34;94662.09;1019330;29;20035;-69
2021/04/28 01:41:14;;;;;;;14.40;10.50;;;;;;;5.03;96.24;94657.41;1019642;29;20274;-65
2021/04/28 01:41:45;;;;;;;12.07;9.48;;;;;;;5.01;96.30;94660.28;1026457;28;20026;-68
2021/04/28 01:42:16;;;;;;;13.20;9.55;;;;;;;5.00;96.50;94657.91;1030855;28;20102;-69
2021/04/28 01:42:47;;;;;;;12.27;9.73;;;;;;;5.00;96.60;94660.53;1027463;28;20258;-68
2021/04/28 01:43:18;;;;;;;14.15;10.13;;;;;;;4.97;96.69;94657.41;1024108;28;20022;-68
2021/04/28 01:43:49;;;;;;;16.80;10.02;;;;;;;4.97;96.65;94665.22;1024443;28;20059;-66
2021/04/28 01:44:21;;;;;;;15.18;10.35;;;;;;;4.92;97.00;94648.81;1013040;29;20634;-68
2021/04/28 01:44:51;;;;;;;14.57;10.43;;;;;;;4.81;97.17;94642.78;1014810;29;20599;-68
2021/04/28 01:45:22;;;;;;;16.85;11.07;;;;;;;4.92;97.35;94654.78;1022394;28;20266;-68
2021/04/28 01:45:53;;;;;;;17.08;9.90;;;;;;;4.83;97.28;94648.53;1019238;29;20023;-68
2021/04/28 01:46:25;;;;;;;13.48;9.70;;;;;;;4.90;97.61;94658.69;1026414;28;20524;-69
2021/04/28 01:46:55;;;;;;;12.98;10.13;;;;;;;4.87;97.86;94659.97;1022761;28;20263;-68
2021/04/28 01:47:26;;;;;;;14.02;9.82;;;;;;;4.86;97.95;94658.41;1023433;28;20281;-68
2021/04/28 01:47:56;;;;;;;15.15;10.20;;;;;;;4.84;98.12;94654.50;1022497;29;20035;-69
2021/04/28 01:48:27;;;;;;;14.07;10.23;;;;;;;4.85;97.96;94656.03;1025906;28;20034;-69
2021/04/28 01:48:57;;;;;;;13.35;10.27;;;;;;;4.87;98.17;94659.19;1022889;28;20066;-68
2021/04/28 01:49:28;;;;;;;15.82;10.32;;;;;;;4.88;97.82;94660.75;1019395;29;20043;-69
2021/04/28 01:49:58;;;;;;;15.73;11.23;;;;;;;4.86;97.95;94653.22;1012047;29;20104;-68
2021/04/28 01:50:28;;;;;;;15.00;10.15;;;;;;;4.84;97.95;94655.28;1007290;29;20021;-69
2021/04/28 01:50:59;;;;;;;14.77;10.63;;;;;;;4.79;98.04;94647.44;1011609;29;20119;-68
2021/04/28 01:51:30;;;;;;;15.95;10.65;;;;;;;4.84;98.03;94657.88;1015059;29;20032;-68
2021/04/28 01:52:00;;;;;;;14.02;10.65;;;;;;;4.84;98.10;94654.50;1026179;28;20038;-68
2021/04/28 01:52:31;;;;;;;14.60;10.65;;;;;;;4.81;98.27;94658.38;1023089;29;20133;-68
2021/04/28 01:53:01;;;;;;;12.95;10.35;;;;;;;4.80;98.48;94653.44;1023023;28;20027;-67
2021/04/28 01:53:32;;;;;;;15.35;10.35;;;;;;;4.77;98.45;94654.72;1024537;28;20027;-68
2021/04/28 01:54:08;;;;;;;18.63;11.73;;;;;;;4.78;98.65;94652.91;1022149;29;20023;-69
2021/04/28 01:54:39;;;;;;;14.68;10.70;;;;;;;4.76;98.42;94658.34;1019099;29;20035;-68
2021/04/28 01:55:10;;;;;;;13.80;10.35;;;;;;;4.78;98.89;94655.50;1020779;28;20270;-68
2021/04/28 01:55:40;;;;;;;14.25;10.93;;;;;;;4.74;98.98;94650.03;1023837;28;20031;-69
2021/04/28 01:56:11;;;;;;;14.68;11.00;;;;;;;4.73;98.76;94653.66;1023176;29;20262;-69
2021/04/28 01:56:42;;;;;;;14.48;10.75;;;;;;;4.78;98.66;94656.28;1026640;28;20030;-67
2021/04/28 01:57:12;;;;;;;17.50;10.40;;;;;;;4.76;99.33;94658.34;1017885;29;20027;-68
2021/04/28 01:57:43;;;;;;;21.10;10.63;;;;;;;4.73;98.70;94651.06;1019179;29;20283;-68
2021/04/28 01:58:14;;;;;;;14.00;10.57;;;;;;;4.71;98.68;94653.13;1019095;29;20024;-68
2021/04/28 01:58:45;;;;;;;14.38;10.23;;;;;;;4.74;99.03;94660.41;1022109;29;20023;-67
2021/04/28 01:59:16;;;;;;;16.85;10.32;;;;;;;4.75;99.00;94654.19;1015043;29;20319;-68
2021/04/28 01:59:46;;;;;;;15.35;10.80;;;;;;;4.73;99.07;94659.66;1022988;29;20023;-68
2021/04/28 02:00:19;;;;;;;14.73;10.65;;;;;;;4.74;98.96;94655.22;1021164;28;20047;-68
2021/04/28 02:00:50;;;;;;;14.35;10.80;;;;;;;4.70;98.91;94643.78;1023266;28;20030;-68
2021/04/28 02:01:20;;;;;;;13.93;10.63;;;;;;;4.76;98.91;94658.34;1018930;29;20303;-68
2021/04/28 02:01:52;;;;;;;14.30;10.18;;;;;;;4.75;98.85;94643.78;1010747;29;20765;-68
2021/04/28 02:02:23;;;;;;;13.73;10.02;;;;;;;4.80;98.92;94654.22;1010842;29;20110;-68
2021/04/28 02:02:53;;;;;;;19.48;10.45;;;;;;;4.81;98.58;94655.78;1026741;28;20728;-68
2021/04/28 02:03:24;;;;;;;13.95;10.75;;;;;;;4.79;98.88;94652.63;1027131;28;20100;-69
2021/04/28 02:03:55;;;;;;;13.55;10.68;;;;;;;4.72;98.85;94647.66;1030411;28;20026;-68
2021/04/28 02:04:25;;;;;;;16.38;10.25;;;;;;;4.67;98.51;94637.25;1030927;28;20285;-68
2021/04/28 02:04:56;;;;;;;16.67;10.88;;;;;;;4.75;98.91;94656.78;1026692;28;20015;-68
2021/04/28 02:05:26;;;;;;;13.82;10.48;;;;;;;4.74;98.86;94652.63;1025699;28;20039;-68
2021/04/28 02:05:59;;;;;;;15.05;11.40;;;;;;;4.70;99.22;94651.56;1028197;28;20077;-68
2021/04/28 02:06:29;;;;;;;16.45;10.80;;;;;;;4.69;99.56;94655.19;1019013;29;20493;-67
2021/04/28 02:07:00;;;;;;;14.80;10.32;;;;;;;4.63;99.78;94649.19;1023004;29;20254;-67
2021/04/28 02:07:30;;;;;;;13.93;11.02;;;;;;;4.56;99.72;94640.03;1020402;28;20529;-69
2021/04/28 02:08:01;;;;;;;16.35;10.60;;;;;;;4.57;99.74;94644.22;1030917;28;20018;-66
2021/04/28 02:08:33;;;;;;;14.07;10.70;;;;;;;4.60;99.79;94648.91;1023112;28;20030;-69
2021/04/28 02:09:04;;;;;;;14.25;10.40;;;;;;;4.61;100.00;94650.47;1016760;29;20016;-68
2021/04/28 02:09:34;;;;;;;15.15;10.70;;;;;;;4.58;100.00;94650.97;1014545;29;20268;-67
2021/04/28 02:10:06;;;;;;;16.98;10.68;;;;;;;4.57;100.00;94650.19;1027465;28;20258;-68
2021/04/28 02:10:36;;;;;;;15.15;11.27;;;;;;;4.57;100.00;94654.63;1023497;28;20031;-68
2021/04/28 02:11:07;;;;;;;15.50;11.85;;;;;;;4.57;100.00;94652.78;1027318;28;20805;-69
2021/04/28 02:11:37;;;;;;;14.50;10.30;;;;;;;4.53;100.00;94645.72;1018819;29;20077;-68
2021/04/28 02:12:12;;;;;;;14.52;10.88;;;;;;;4.53;100.00;94648.34;1014958;29;20467;-68
2021/04/28 02:12:42;;;;;;;16.15;11.05;;;;;;;4.51;100.00;94646.00;1020001;29;20032;-68
2021/04/28 02:13:15;;;;;;;15.18;10.73;;;;;;;4.51;100.00;94642.63;1019494;29;20342;-68
2021/04/28 02:13:47;;;;;;;24.80;11.46;;;;;;;4.46;100.00;94644.16;1015905;29;20108;-68
2021/04/28 02:14:21;;;;;;;15.72;11.08;;;;;;;4.43;100.00;94638.69;1019638;29;20058;-68
2021/04/28 02:14:52;;;;;;;14.40;10.85;;;;;;;4.46;100.00;94649.34;1018831;29;20513;-68
2021/04/28 02:15:23;;;;;;;15.45;10.48;;;;;;;4.43;100.00;94644.66;1014615;29;20260;-68
2021/04/28 02:15:54;;;;;;;16.36;11.22;;;;;;;4.39;100.00;94638.41;1010821;29;20032;-69
2021/04/28 02:16:26;;;;;;;14.65;10.75;;;;;;;4.41;100.00;94651.13;1014422;29;20522;-68
2021/04/28 02:16:56;;;;;;;18.60;11.88;;;;;;;4.38;100.00;94651.63;1010707;29;20025;-68
2021/04/28 02:17:27;;;;;;;14.95;11.45;;;;;;;4.38;100.00;94659.41;1013635;29;20317;-68
2021/04/28 02:17:58;;;;;;;15.30;10.73;;;;;;;4.37;100.00;94656.03;1021852;28;20046;-68
2021/04/28 02:18:29;;;;;;;16.92;11.46;;;;;;;4.37;100.00;94656.03;1022932;29;20019;-68
2021/04/28 02:19:02;;;;;;;15.75;11.27;;;;;;;4.34;100.00;94646.16;1030542;28;20050;-68
2021/04/28 02:19:33;;;;;;;17.86;11.10;;;;;;;4.32;100.00;94653.41;1023007;29;20027;-68
2021/04/28 02:20:06;;;;;;;14.82;11.32;;;;;;;4.25;100.00;94642.44;1021017;28;20509;-68
2021/04/28 02:20:37;;;;;;;15.93;11.80;;;;;;;4.25;100.00;94647.66;1018579;29;20027;-68
2021/04/28 02:21:07;;;;;;;17.90;11.75;;;;;;;4.24;100.00;94649.47;1016689;29;20851;-68
2021/04/28 02:21:48;;;;;;;16.60;11.55;;;;;;;4.24;100.00;94652.06;1015090;29;20071;-69
2021/04/28 02:22:18;;;;;;;;;;;;;;;4.24;100.00;94648.69;1018747;29;20023;-68
2021/04/28 02:22:49;;;;;;;17.25;11.35;;;;;;;4.22;100.00;94648.13;1024322;28;19993;-68
2021/04/28 02:23:19;;;;;;;13.77;10.95;;;;;;;4.20;100.00;94656.19;1022920;29;20433;-68
2021/04/28 02:23:50;;;;;;;14.93;11.68;;;;;;;4.17;100.00;94645.53;1019810;29;20043;-68
2021/04/28 02:24:20;;;;;;;16.27;11.23;;;;;;;4.18;100.00;94654.88;1014770;29;20494;-68
2021/04/28 02:24:51;;;;;;;14.65;11.50;;;;;;;4.23;100.00;94649.72;1014943;29;20024;-68